createdAt,value
2022-12-05T00:01:20.273Z,83.25
2022-12-05T00:03:48.876Z,83.65
2022-12-05T00:06:16.666Z,82.78
2022-12-05T00:08:43.906Z,82.90
2022-12-05T00:11:15.280Z,83.18
2022-12-05T00:13:42.769Z,83.41
2022-12-05T00:16:14.603Z,83.00
2022-12-05T00:18:41.881Z,83.89
2022-12-05T00:21:13.659Z,83.23
2022-12-05T00:23:40.394Z,83.90
2022-12-05T00:26:07.419Z,82.60
2022-12-05T00:28:35.281Z,83.97
2022-12-05T00:31:04.121Z,83.55
2022-12-05T00:33:30.703Z,83.04
2022-12-05T00:36:09.010Z,83.46
2022-12-05T00:38:35.852Z,83.31
2022-12-05T00:41:10.156Z,83.41
2022-12-05T00:43:36.981Z,83.95
2022-12-05T00:46:29.846Z,83.43
2022-12-05T00:48:58.345Z,83.89
2022-12-05T00:51:28.629Z,83.16
2022-12-05T00:53:58.702Z,83.82
2022-12-05T00:56:26.880Z,84.23
2022-12-05T00:58:55.618Z,82.93
2022-12-05T01:01:28.605Z,82.88
2022-12-05T01:03:57.225Z,83.56
2022-12-05T01:06:24.992Z,84.08
2022-12-05T01:08:54.350Z,82.89
2022-12-05T01:11:23.097Z,83.26
2022-12-05T01:13:50.322Z,83.99
2022-12-05T01:16:26.827Z,82.71
2022-12-05T01:18:54.931Z,82.90
2022-12-05T01:21:21.673Z,83.05
2022-12-05T01:23:48.653Z,83.52
2022-12-05T01:26:17.844Z,82.75
2022-12-05T01:28:45.310Z,83.66
2022-12-05T01:31:22.245Z,83.95
2022-12-05T01:33:49.312Z,83.33
2022-12-05T01:36:16.548Z,83.42
2022-12-05T01:38:44.396Z,83.56
2022-12-05T01:41:18.447Z,83.41
2022-12-05T01:44:02.436Z,84.25
2022-12-05T01:46:31.930Z,83.15
2022-12-05T01:49:20.926Z,84.51
2022-12-05T01:51:50.046Z,84.09
2022-12-05T01:54:18.569Z,84.27
2022-12-05T01:56:50.763Z,84.18
2022-12-05T01:59:20.540Z,84.00
2022-12-05T02:01:47.281Z,83.60
2022-12-05T02:04:14.688Z,83.79
2022-12-05T02:06:41.347Z,84.56
2022-12-05T02:09:08.019Z,84.21
2022-12-05T02:11:41.814Z,83.77
2022-12-05T02:14:31.500Z,83.50
2022-12-05T02:17:01.085Z,84.14
2022-12-05T02:19:56.234Z,83.75
2022-12-05T02:22:51.260Z,84.38
2022-12-05T02:25:17.739Z,83.60
2022-12-05T02:27:47.977Z,83.57
2022-12-05T02:30:19.190Z,84.36
2022-12-05T02:33:06.927Z,83.64
2022-12-05T02:35:46.492Z,84.07
2022-12-05T02:38:25.382Z,83.06
2022-12-05T02:40:57.546Z,83.41
2022-12-05T02:43:47.080Z,84.14
2022-12-05T02:46:21.981Z,83.76
2022-12-05T02:48:51.867Z,84.04
2022-12-05T02:51:22.234Z,83.79
2022-12-05T02:53:50.683Z,83.74
2022-12-05T02:56:18.370Z,83.56
2022-12-05T02:58:54.194Z,84.52
2022-12-05T03:01:28.663Z,84.74
2022-12-05T03:03:56.340Z,84.93
2022-12-05T03:06:45.541Z,84.90
2022-12-05T03:09:27.200Z,84.66
2022-12-05T03:12:07.492Z,84.81
2022-12-05T03:14:41.666Z,85.24
2022-12-05T03:17:13.952Z,84.27
2022-12-05T03:20:08.487Z,84.65
2022-12-05T03:22:57.030Z,85.29
2022-12-05T03:25:27.562Z,85.11
2022-12-05T03:28:07.372Z,84.62
2022-12-05T03:30:38.068Z,84.96
2022-12-05T03:33:18.658Z,84.90
2022-12-05T03:36:04.118Z,84.49
2022-12-05T03:38:40.081Z,85.38
2022-12-05T03:41:20.436Z,84.70
2022-12-05T03:43:56.995Z,85.40
2022-12-05T03:46:34.788Z,84.83
2022-12-05T03:49:11.528Z,85.72
2022-12-05T03:51:43.500Z,86.03
2022-12-05T03:54:21.406Z,85.94
2022-12-05T03:56:54.400Z,86.52
2022-12-05T03:59:32.861Z,86.41
2022-12-05T04:02:04.712Z,85.85
2022-12-05T04:04:35.776Z,85.98
2022-12-05T04:07:06.144Z,85.63
2022-12-05T04:09:56.771Z,85.00
2022-12-05T04:12:28.436Z,85.12
2022-12-05T04:15:03.717Z,84.73
2022-12-05T04:17:40.181Z,85.37
2022-12-05T04:20:52.207Z,85.32
2022-12-05T04:23:19.157Z,85.21
2022-12-05T04:25:54.290Z,85.32
2022-12-05T04:28:32.177Z,85.21
2022-12-05T04:31:08.352Z,84.71
2022-12-05T04:33:50.876Z,85.13
2022-12-05T04:36:30.139Z,85.40
2022-12-05T04:39:10.687Z,84.30
2022-12-05T04:41:52.872Z,85.26
2022-12-05T04:44:25.446Z,84.32
2022-12-05T04:46:55.592Z,85.14
2022-12-05T04:49:24.949Z,85.51
2022-12-05T04:51:55.093Z,85.39
2022-12-05T04:54:29.157Z,84.79
2022-12-05T04:57:05.385Z,84.79
2022-12-05T04:59:31.947Z,84.52
2022-12-05T05:02:06.833Z,84.68
2022-12-05T05:04:42.054Z,85.05
2022-12-05T05:07:10.261Z,84.90
2022-12-05T05:09:37.527Z,84.92
2022-12-05T05:12:04.743Z,84.25
2022-12-05T05:14:31.314Z,84.29
2022-12-05T05:16:57.937Z,84.87
2022-12-05T05:19:25.275Z,84.26
2022-12-05T05:21:52.971Z,84.68
2022-12-05T05:24:21.709Z,84.89
2022-12-05T05:26:52.435Z,84.19
2022-12-05T05:29:22.182Z,83.97
2022-12-05T05:31:48.875Z,84.19
2022-12-05T05:34:16.218Z,84.16
2022-12-05T05:36:43.932Z,84.51
2022-12-05T05:39:15.314Z,84.33
2022-12-05T05:41:42.961Z,84.94
2022-12-05T05:44:10.137Z,84.62
2022-12-05T05:46:37.513Z,84.70
2022-12-05T05:49:04.637Z,84.37
2022-12-05T05:51:31.275Z,84.70
2022-12-05T05:53:58.897Z,84.39
2022-12-05T05:56:25.827Z,84.39
2022-12-05T05:58:58.495Z,84.70
2022-12-05T06:01:25.168Z,85.00
2022-12-05T06:03:51.897Z,84.38
2022-12-05T06:06:19.807Z,85.09
2022-12-05T06:08:47.196Z,84.40
2022-12-05T06:11:26.125Z,85.40
2022-12-05T06:13:55.036Z,84.48
2022-12-05T06:16:21.794Z,85.22
2022-12-05T06:18:50.077Z,84.74
2022-12-05T06:21:17.208Z,85.46
2022-12-05T06:23:44.263Z,84.48
2022-12-05T06:26:13.315Z,84.50
2022-12-05T06:28:40.224Z,84.00
2022-12-05T06:31:12.528Z,84.82
2022-12-05T06:33:39.648Z,85.21
2022-12-05T06:36:09.273Z,84.56
2022-12-05T06:38:41.587Z,85.13
2022-12-05T06:41:11.521Z,84.95
2022-12-05T06:43:38.136Z,85.27
2022-12-05T06:46:06.278Z,85.15
2022-12-05T06:48:32.965Z,84.20
2022-12-05T06:50:59.640Z,84.57
2022-12-05T06:53:26.354Z,84.23
2022-12-05T06:56:01.660Z,84.69
2022-12-05T06:58:29.208Z,84.79
2022-12-05T07:01:14.766Z,84.80
2022-12-05T07:03:43.980Z,85.25
2022-12-05T07:06:11.437Z,84.86
2022-12-05T07:08:38.050Z,84.36
2022-12-05T07:11:04.791Z,84.95
2022-12-05T07:13:31.469Z,84.52
2022-12-05T07:15:59.072Z,84.81
2022-12-05T07:18:26.885Z,84.08
2022-12-05T07:21:13.403Z,84.63
2022-12-05T07:23:44.594Z,84.61
2022-12-05T07:26:14.135Z,84.74
2022-12-05T07:28:40.743Z,84.08
2022-12-05T07:31:10.381Z,83.92
2022-12-05T07:33:37.403Z,84.11
2022-12-05T07:36:07.727Z,83.91
2022-12-05T07:38:34.462Z,84.00
2022-12-05T07:41:12.986Z,83.42
2022-12-05T07:43:40.864Z,83.95
2022-12-05T07:46:08.498Z,83.53
2022-12-05T07:48:35.139Z,83.88
2022-12-05T07:51:03.406Z,83.28
2022-12-05T07:53:32.165Z,83.48
2022-12-05T07:56:00.798Z,82.98
2022-12-05T07:58:31.853Z,83.57
2022-12-05T08:01:05.767Z,83.67
2022-12-05T08:03:32.438Z,83.37
2022-12-05T08:06:06.475Z,83.21
2022-12-05T08:08:33.615Z,83.12
2022-12-05T08:11:10.138Z,83.50
2022-12-05T08:13:37.241Z,83.38
2022-12-05T08:16:06.237Z,83.14
2022-12-05T08:18:33.138Z,83.40
2022-12-05T08:21:19.621Z,82.29
2022-12-05T08:23:46.928Z,83.26
2022-12-05T08:26:22.279Z,83.21
2022-12-05T08:28:57.092Z,82.97
2022-12-05T08:31:25.091Z,83.04
2022-12-05T08:33:57.156Z,83.55
2022-12-05T08:36:26.218Z,83.14
2022-12-05T08:38:57.120Z,82.87
2022-12-05T08:41:28.404Z,83.18
2022-12-05T08:43:56.203Z,83.11
2022-12-05T08:46:22.861Z,83.38
2022-12-05T08:48:49.487Z,83.50
2022-12-05T08:51:16.086Z,82.79
2022-12-05T08:53:44.666Z,83.41
2022-12-05T08:56:12.795Z,83.09
2022-12-05T08:58:40.110Z,83.63
2022-12-05T09:01:17.977Z,83.12
2022-12-05T09:03:48.008Z,83.59
2022-12-05T09:06:16.138Z,84.11
2022-12-05T09:08:44.249Z,83.31
2022-12-05T09:11:14.615Z,84.19
2022-12-05T09:13:42.280Z,83.74
2022-12-05T09:16:11.472Z,84.14
2022-12-05T09:18:38.788Z,83.93
2022-12-05T09:21:14.907Z,83.97
2022-12-05T09:23:41.886Z,84.28
2022-12-05T09:26:11.897Z,84.12
2022-12-05T09:28:38.906Z,84.25
2022-12-05T09:31:08.110Z,84.35
2022-12-05T09:33:36.496Z,84.34
2022-12-05T09:36:08.380Z,84.11
2022-12-05T09:38:35.406Z,84.22
2022-12-05T09:41:14.774Z,84.65
2022-12-05T09:44:14.263Z,84.87
2022-12-05T09:46:49.930Z,85.33
2022-12-05T09:49:16.815Z,85.64
2022-12-05T09:51:49.570Z,84.98
2022-12-05T09:54:19.335Z,84.62
2022-12-05T09:56:49.944Z,84.81
2022-12-05T09:59:17.898Z,84.79
2022-12-05T10:01:57.825Z,84.57
2022-12-05T10:04:30.484Z,84.32
2022-12-05T10:07:28.930Z,84.45
2022-12-05T10:10:20.953Z,84.28
2022-12-05T10:12:56.867Z,84.43
2022-12-05T10:15:35.690Z,84.57
2022-12-05T10:18:11.556Z,84.61
2022-12-05T10:20:48.733Z,84.84
2022-12-05T10:23:55.580Z,85.23
2022-12-05T10:26:15.500Z,84.94
2022-12-05T10:29:09.890Z,85.06
2022-12-05T10:31:38.997Z,85.17
2022-12-05T10:34:37.431Z,85.14
2022-12-05T10:37:24.142Z,84.84
2022-12-05T10:39:52.067Z,86.01
2022-12-05T10:42:29.655Z,85.40
2022-12-05T10:44:59.321Z,85.35
2022-12-05T10:47:26.337Z,85.10
2022-12-05T10:49:55.910Z,85.39
2022-12-05T10:52:22.477Z,85.31
2022-12-05T10:54:58.952Z,85.42
2022-12-05T10:57:28.316Z,85.12
2022-12-05T10:59:56.512Z,85.11
2022-12-05T11:02:30.378Z,85.43
2022-12-05T11:04:58.647Z,85.02
2022-12-05T11:07:33.196Z,85.95
2022-12-05T11:10:02.227Z,85.01
2022-12-05T11:12:39.563Z,85.65
2022-12-05T11:15:25.422Z,85.71
2022-12-05T11:17:54.613Z,85.87
2022-12-05T11:20:21.133Z,85.59
2022-12-05T11:22:56.337Z,85.41
2022-12-05T11:25:33.720Z,85.42
2022-12-05T11:28:16.677Z,85.25
2022-12-05T11:31:03.995Z,85.12
2022-12-05T11:33:33.315Z,85.17
2022-12-05T11:36:14.661Z,85.47
2022-12-05T11:38:41.843Z,84.86
2022-12-05T11:41:37.261Z,84.65
2022-12-05T11:44:15.898Z,84.38
2022-12-05T11:46:52.403Z,84.40
2022-12-05T11:49:32.768Z,84.28
2022-12-05T11:52:25.360Z,84.77
2022-12-05T11:55:14.397Z,83.38
2022-12-05T11:57:52.002Z,84.39
2022-12-05T12:00:18.741Z,83.80
2022-12-05T12:03:02.840Z,83.18
2022-12-05T12:05:38.482Z,83.75
2022-12-05T12:08:22.869Z,83.67
2022-12-05T12:10:57.732Z,83.84
2022-12-05T12:13:36.525Z,83.95
2022-12-05T12:16:17.925Z,84.38
2022-12-05T12:19:05.848Z,83.13
2022-12-05T12:22:10.202Z,83.32
2022-12-05T12:25:09.215Z,82.36
2022-12-05T12:27:59.927Z,82.68
2022-12-05T12:31:10.645Z,82.36
2022-12-05T12:34:05.446Z,82.22
2022-12-05T12:36:44.471Z,82.42
2022-12-05T12:39:41.844Z,82.63
2022-12-05T12:42:24.257Z,82.25
2022-12-05T12:45:17.734Z,83.16
2022-12-05T12:48:09.230Z,82.52
2022-12-05T12:50:44.017Z,82.36
2022-12-05T12:53:46.514Z,83.12
2022-12-05T12:56:38.892Z,82.54
2022-12-05T12:59:36.633Z,83.08
2022-12-05T13:02:16.385Z,81.94
2022-12-05T13:04:50.563Z,82.37
2022-12-05T13:07:40.092Z,81.53
2022-12-05T13:10:17.613Z,81.50
2022-12-05T13:12:45.058Z,82.20
2022-12-05T13:15:16.644Z,81.39
2022-12-05T13:17:47.371Z,81.55
2022-12-05T13:20:17.014Z,81.26
2022-12-05T13:22:44.886Z,80.05
2022-12-05T13:25:16.654Z,81.01
2022-12-05T13:28:05.151Z,80.18
2022-12-05T13:30:33.469Z,80.69
2022-12-05T13:33:08.788Z,81.20
2022-12-05T13:35:55.988Z,80.47
2022-12-05T13:38:50.364Z,80.41
2022-12-05T13:41:35.724Z,80.31
2022-12-05T13:44:12.067Z,80.60
2022-12-05T13:46:42.397Z,80.55
2022-12-05T13:49:32.617Z,81.06
2022-12-05T13:52:14.317Z,81.19
2022-12-05T13:54:45.159Z,81.35
2022-12-05T13:57:37.391Z,79.96
2022-12-05T14:00:19.644Z,80.02
2022-12-05T14:02:48.709Z,80.35
2022-12-05T14:05:15.308Z,79.91
2022-12-05T14:07:47.275Z,79.94
2022-12-05T14:10:16.799Z,80.47
2022-12-05T14:12:51.638Z,79.58
2022-12-05T14:15:37.976Z,79.42
2022-12-05T14:18:13.747Z,80.33
2022-12-05T14:20:49.151Z,80.18
2022-12-05T14:23:37.569Z,79.98
2022-12-05T14:26:40.874Z,79.63
2022-12-05T14:29:45.348Z,79.18
2022-12-05T14:32:22.622Z,80.04
2022-12-05T14:34:55.159Z,79.94
2022-12-05T14:37:32.999Z,79.54
2022-12-05T14:40:03.048Z,78.95
2022-12-05T14:42:36.293Z,79.73
2022-12-05T14:45:23.294Z,79.11
2022-12-05T14:47:56.639Z,80.11
2022-12-05T14:50:23.290Z,79.91
2022-12-05T14:53:20.447Z,80.44
2022-12-05T14:56:10.063Z,80.84
2022-12-05T14:58:48.682Z,81.25
2022-12-05T15:01:18.305Z,81.36
2022-12-05T15:04:05.065Z,81.39
2022-12-05T15:09:37.293Z,81.53
2022-12-05T15:12:22.131Z,81.63
2022-12-05T15:14:59.543Z,82.07
2022-12-05T15:17:43.386Z,82.09
2022-12-05T15:20:26.931Z,82.62
2022-12-05T15:22:54.234Z,82.57
2022-12-05T15:25:21.987Z,82.48
2022-12-05T15:28:20.615Z,82.87
2022-12-05T15:30:56.037Z,82.83
2022-12-05T15:33:27.385Z,82.76
2022-12-05T15:35:55.940Z,82.53
2022-12-05T15:38:31.086Z,82.99
2022-12-05T15:40:57.796Z,82.86
2022-12-05T15:43:31.126Z,82.95
2022-12-05T15:46:24.409Z,83.25
2022-12-05T15:48:56.567Z,83.14
2022-12-05T15:51:37.609Z,83.50
2022-12-05T15:54:14.493Z,83.12
2022-12-05T15:56:47.358Z,83.08
2022-12-05T15:59:33.526Z,83.27
2022-12-05T16:02:21.711Z,83.07
2022-12-05T16:04:56.836Z,83.19
2022-12-05T16:07:27.367Z,83.40
2022-12-05T16:10:00.758Z,82.73
2022-12-05T16:12:35.058Z,83.08
2022-12-05T16:15:30.413Z,82.90
2022-12-05T16:17:59.630Z,83.20
2022-12-05T16:20:37.026Z,83.24
2022-12-05T16:23:25.614Z,83.50
2022-12-05T16:25:52.446Z,83.04
2022-12-05T16:28:21.871Z,83.29
2022-12-05T16:31:02.431Z,83.39
2022-12-05T16:33:30.743Z,83.47
2022-12-05T16:36:08.259Z,83.02
2022-12-05T16:38:35.454Z,83.46
2022-12-05T16:41:06.058Z,83.20
2022-12-05T16:43:33.156Z,83.51
2022-12-05T16:46:27.560Z,83.04
2022-12-05T16:49:20.633Z,83.40
2022-12-05T16:52:14.979Z,83.39
2022-12-05T16:54:43.219Z,83.58
2022-12-05T16:57:14.020Z,83.75
2022-12-05T16:59:45.657Z,83.53
2022-12-05T17:02:15.602Z,83.51
2022-12-05T17:04:43.026Z,83.59
2022-12-05T17:07:09.951Z,83.79
2022-12-05T17:09:36.755Z,84.06
2022-12-05T17:12:26.729Z,83.63
2022-12-05T17:14:53.697Z,83.74
2022-12-05T17:17:21.297Z,83.76
2022-12-05T17:19:48.144Z,83.89
2022-12-05T17:22:16.017Z,83.89
2022-12-05T17:24:43.233Z,83.33
2022-12-05T17:27:11.754Z,83.51
2022-12-05T17:29:38.672Z,83.40
2022-12-05T17:32:06.015Z,83.70
2022-12-05T17:34:32.882Z,83.42
2022-12-05T17:37:00.523Z,83.49
2022-12-05T17:39:28.815Z,83.29
2022-12-05T17:41:56.302Z,83.46
2022-12-05T17:44:23.720Z,83.51
2022-12-05T17:46:50.562Z,83.37
2022-12-05T17:49:18.543Z,83.08
2022-12-05T17:52:20.034Z,83.57
2022-12-05T17:54:33.155Z,83.81
2022-12-05T17:57:00.222Z,83.73
2022-12-05T17:59:27.374Z,84.57
2022-12-05T18:01:54.156Z,84.23
2022-12-05T18:04:23.335Z,83.93
2022-12-05T18:06:51.516Z,84.27
2022-12-05T18:09:18.344Z,84.29
2022-12-05T18:11:45.347Z,83.97
2022-12-05T18:14:12.156Z,84.12
2022-12-05T18:16:39.127Z,83.80
2022-12-05T18:19:08.340Z,84.18
2022-12-05T18:21:35.805Z,84.25
2022-12-05T18:24:03.001Z,84.20
2022-12-05T18:26:30.841Z,84.23
2022-12-05T18:28:59.562Z,84.59
2022-12-05T18:31:26.827Z,84.40
2022-12-05T18:33:53.993Z,84.58
2022-12-05T18:36:21.528Z,84.79
2022-12-05T18:38:53.536Z,84.67
2022-12-05T18:41:23.732Z,84.37
2022-12-05T18:43:51.440Z,84.49
2022-12-05T18:46:18.678Z,83.77
2022-12-05T18:48:47.727Z,83.64
2022-12-05T18:51:24.117Z,83.63
2022-12-05T18:53:53.793Z,83.56
2022-12-05T18:56:27.662Z,83.20
2022-12-05T18:59:07.210Z,83.71
2022-12-05T19:01:39.934Z,83.32
2022-12-05T19:04:09.096Z,83.17
2022-12-05T19:06:37.364Z,83.05
2022-12-05T19:09:07.532Z,83.01
2022-12-05T19:11:35.036Z,82.63
2022-12-05T19:14:04.478Z,82.74
2022-12-05T19:16:33.480Z,82.55
2022-12-05T19:19:03.186Z,82.73
2022-12-05T19:21:32.296Z,82.30
2022-12-05T19:23:59.259Z,82.49
2022-12-05T19:26:26.678Z,82.42
2022-12-05T19:28:54.279Z,82.42
2022-12-05T19:31:23.762Z,81.69
2022-12-05T19:33:53.327Z,81.87
2022-12-05T19:36:27.250Z,82.49
2022-12-05T19:38:55.832Z,82.38
2022-12-05T19:41:25.719Z,82.06
2022-12-05T19:43:53.459Z,82.20
2022-12-05T19:46:27.076Z,82.11
2022-12-05T19:48:56.520Z,82.24
2022-12-05T19:51:23.422Z,82.46
2022-12-05T19:54:05.246Z,82.54
2022-12-05T19:56:33.461Z,82.48
2022-12-05T19:59:00.619Z,82.83
2022-12-05T20:01:34.167Z,83.15
2022-12-05T20:04:07.140Z,83.03
2022-12-05T20:06:39.602Z,83.49
2022-12-05T20:09:08.737Z,83.44
2022-12-05T20:11:38.333Z,83.83
2022-12-05T20:14:05.103Z,83.71
2022-12-05T20:16:33.759Z,83.88
2022-12-05T20:19:00.671Z,83.83
2022-12-05T20:21:29.572Z,83.88
2022-12-05T20:23:56.733Z,83.73
2022-12-05T20:26:29.644Z,83.61
2022-12-05T20:28:58.754Z,83.74
2022-12-05T20:31:34.146Z,83.74
2022-12-05T20:34:01.474Z,83.80
2022-12-05T20:36:30.827Z,83.79
2022-12-05T20:39:00.186Z,83.77
2022-12-05T20:41:28.080Z,83.65
2022-12-05T20:43:59.646Z,83.50
2022-12-05T20:46:27.260Z,83.67
2022-12-05T20:48:54.625Z,83.25
2022-12-05T20:51:24.069Z,83.48
2022-12-05T20:53:51.521Z,83.74
2022-12-05T20:56:20.603Z,83.67
2022-12-05T20:58:49.573Z,83.85
2022-12-05T21:01:18.557Z,83.98
2022-12-05T21:03:51.598Z,84.20
2022-12-05T21:06:23.557Z,84.10
2022-12-05T21:08:51.446Z,84.36
2022-12-05T21:11:18.826Z,84.20
2022-12-05T21:13:46.193Z,84.30
2022-12-05T21:16:16.803Z,84.44
2022-12-05T21:18:45.082Z,84.70
2022-12-05T21:21:22.878Z,84.68
2022-12-05T21:23:57.737Z,84.59
2022-12-05T21:26:27.712Z,84.48
2022-12-05T21:28:54.990Z,84.64
2022-12-05T21:31:22.983Z,84.40
2022-12-05T21:33:52.801Z,84.88
2022-12-05T21:36:20.918Z,84.89
2022-12-05T21:38:52.391Z,84.76
2022-12-05T21:41:22.774Z,84.78
2022-12-05T21:43:54.081Z,84.77
2022-12-05T21:46:21.827Z,84.48
2022-12-05T21:48:48.552Z,84.61
2022-12-05T21:51:15.365Z,84.31
2022-12-05T21:53:44.194Z,84.29
2022-12-05T21:56:15.704Z,84.54
2022-12-05T21:58:43.819Z,84.25
2022-12-05T22:01:12.575Z,84.16
2022-12-05T22:03:40.028Z,84.12
2022-12-05T22:06:09.812Z,83.81
2022-12-05T22:08:38.097Z,84.14
2022-12-05T22:11:12.712Z,83.76
2022-12-05T22:13:40.013Z,84.03
2022-12-05T22:16:08.370Z,83.88
2022-12-05T22:18:35.639Z,84.24
2022-12-05T22:21:12.398Z,83.95
2022-12-05T22:23:39.392Z,83.77
2022-12-05T22:26:18.647Z,84.01
2022-12-05T22:28:45.593Z,83.95
2022-12-05T22:31:14.825Z,84.18
2022-12-05T22:33:41.707Z,84.21
2022-12-05T22:36:11.675Z,83.98
2022-12-05T22:38:40.733Z,84.02
2022-12-05T22:41:14.493Z,83.90
2022-12-05T22:43:42.835Z,83.77
2022-12-05T22:46:15.363Z,83.62
2022-12-05T22:48:42.187Z,83.73
2022-12-05T22:51:09.735Z,83.64
2022-12-05T22:53:44.128Z,83.58
2022-12-05T22:56:14.168Z,83.68
2022-12-05T22:58:41.979Z,83.70
2022-12-05T23:01:16.194Z,83.66
2022-12-05T23:03:44.965Z,84.00
2022-12-05T23:06:13.712Z,83.76
2022-12-05T23:08:43.047Z,84.00
2022-12-05T23:11:10.734Z,84.22
2022-12-05T23:13:38.318Z,84.28
2022-12-05T23:16:13.232Z,84.36
2022-12-05T23:18:49.619Z,84.51
2022-12-05T23:21:25.459Z,84.94
2022-12-05T23:23:57.189Z,84.32
2022-12-05T23:26:27.400Z,84.59
2022-12-05T23:28:54.273Z,84.50
2022-12-05T23:31:21.641Z,84.62
2022-12-05T23:33:51.180Z,84.51
2022-12-05T23:36:18.912Z,84.36
2022-12-05T23:38:45.995Z,84.33
2022-12-05T23:41:14.024Z,84.14
2022-12-05T23:43:42.041Z,83.76
2022-12-05T23:46:10.258Z,83.70
2022-12-05T23:48:38.014Z,84.00
2022-12-05T23:51:08.938Z,84.36
2022-12-05T23:53:46.752Z,84.04
2022-12-05T23:56:19.628Z,83.88
2022-12-05T23:58:47.192Z,84.07
